Time;durP1;ratioP1;P1;durP2;ratioP2;P2;SDS_P1;SDS_P2;PMS_P1;PMS_P2;Temp;Humidity;BMP_temperature;BMP_pressure;BME280_temperature;BME280_humidity;BME280_pressure;Samples;Min_cycle;Max_cycle;Signal;HPM_P1;HPM_P2
2023/09/23 00:00:13;;;;;;;;;0.75;0.00;;;;;19.93;100.00;100535.19;2114408;27;46489;-59
2023/09/23 00:01:14;;;;;;;;;1.33;0.00;;;;;19.92;100.00;100536.13;2114181;27;46763;-58
2023/09/23 00:02:15;;;;;;;;;0.00;0.00;;;;;19.91;100.00;100532.59;2114691;27;46182;-59
2023/09/23 00:03:16;;;;;;;;;0.67;0.00;;;;;19.89;100.00;100523.75;2114632;27;46106;-60
2023/09/23 00:04:16;;;;;;;;;0.75;0.75;;;;;19.90;100.00;100533.53;2117638;27;46939;-59
2023/09/23 00:05:17;;;;;;;;;0.00;0.00;;;;;19.89;100.00;100534.50;2114424;27;46546;-59
2023/09/23 00:06:20;;;;;;;;;2.00;0.00;;;;;19.90;100.00;100536.25;2104110;28;46463;-58
2023/09/23 00:07:21;;;;;;;;;0.50;0.50;;;;;19.91;100.00;100539.81;2105273;28;46825;-59
2023/09/23 00:08:21;;;;;;;;;0.00;0.00;;;;;19.89;100.00;100537.22;2107086;27;46307;-59
2023/09/23 00:09:22;;;;;;;;;0.00;0.00;;;;;20.00;100.00;100536.53;2114331;27;46203;-58
2023/09/23 00:10:23;;;;;;;;;0.00;0.00;;;;;20.02;100.00;100539.13;2114512;27;46812;-57
2023/09/23 00:11:23;;;;;;;;;0.00;0.00;;;;;20.04;100.00;100540.75;2114978;27;46086;-59
2023/09/23 00:12:24;;;;;;;;;0.33;0.00;;;;;20.04;100.00;100538.06;2114300;27;46455;-59
2023/09/23 00:13:25;;;;;;;;;1.00;0.00;;;;;20.03;100.00;100543.53;2114536;27;46963;-57
2023/09/23 00:14:25;;;;;;;;;0.00;0.00;;;;;19.93;100.00;100532.47;2116434;27;46731;-58
2023/09/23 00:15:25;;;;;;;;;0.00;0.00;;;;;19.93;100.00;100543.25;2114433;27;46441;-57
2023/09/23 00:16:26;;;;;;;;;0.00;0.00;;;;;19.89;100.00;100547.13;2114788;27;46463;-59
2023/09/23 00:17:27;;;;;;;;;0.00;0.00;;;;;19.85;100.00;100538.38;2114264;27;46809;-58
2023/09/23 00:18:27;;;;;;;;;0.00;0.00;;;;;19.95;100.00;100544.06;2113811;27;46237;-57
2023/09/23 00:19:28;;;;;;;;;1.00;1.00;;;;;19.96;100.00;100543.94;2114925;27;46469;-59
2023/09/23 00:20:28;;;;;;;;;0.33;0.00;;;;;20.01;100.00;100545.47;2114051;27;46650;-58
2023/09/23 00:21:28;;;;;;;;;1.00;1.00;;;;;19.89;100.00;100550.66;2113487;27;46188;-58
2023/09/23 00:22:29;;;;;;;;;0.00;0.00;;;;;19.98;100.00;100543.84;2114518;27;46527;-57
2023/09/23 00:23:30;;;;;;;;;0.00;0.00;;;;;19.91;100.00;100547.88;2112518;27;46265;-58
2023/09/23 00:24:31;;;;;;;;;0.00;0.00;;;;;19.91;100.00;100551.44;2114826;27;46534;-58
2023/09/23 00:25:33;;;;;;;;;0.00;0.00;;;;;19.84;100.00;100554.63;2114292;27;46103;-58
2023/09/23 00:26:33;;;;;;;;;0.75;0.00;;;;;19.81;100.00;100549.41;2114337;27;46826;-58
2023/09/23 00:27:34;;;;;;;;;1.00;0.00;;;;;19.79;100.00;100552.19;2097406;28;46428;-59
2023/09/23 00:28:34;;;;;;;;;0.33;0.00;;;;;19.79;100.00;100557.59;2096248;28;46499;-59
2023/09/23 00:29:35;;;;;;;;;1.67;0.00;;;;;19.80;100.00;100558.44;2096775;28;46386;-59
2023/09/23 00:30:35;;;;;;;;;1.67;0.00;;;;;19.79;100.00;100559.41;2105160;28;46691;-59
2023/09/23 00:31:36;;;;;;;;;0.00;0.00;;;;;19.92;100.00;100552.31;2113799;27;46530;-57
2023/09/23 00:32:37;;;;;;;;;0.00;0.00;;;;;19.85;100.00;100559.91;2114602;27;46634;-57
2023/09/23 00:33:39;;;;;;;;;0.00;0.00;;;;;19.84;100.00;100560.88;2114056;27;46646;-58
2023/09/23 00:34:39;;;;;;;;;0.00;0.00;;;;;19.84;100.00;100568.97;2114311;27;46602;-58
2023/09/23 00:35:40;;;;;;;;;1.25;0.00;;;;;19.82;100.00;100567.28;2114471;27;46366;-58
2023/09/23 00:36:41;;;;;;;;;0.00;0.00;;;;;19.83;100.00;100571.75;2114090;27;48510;-57
2023/09/23 00:37:43;;;;;;;;;0.00;0.00;;;;;19.79;100.00;100562.97;2113014;27;46696;-58
2023/09/23 00:38:44;;;;;;;;;0.00;0.00;;;;;19.80;100.00;100566.53;2112536;27;47058;-60
2023/09/23 00:39:45;;;;;;;;;0.00;0.00;;;;;19.80;100.00;100562.00;2111189;27;46318;-59
2023/09/23 00:40:45;;;;;;;;;0.00;0.00;;;;;19.80;100.00;100569.22;2107890;27;47029;-59
2023/09/23 00:41:46;;;;;;;;;0.00;0.00;;;;;19.78;100.00;100563.94;2114068;27;46518;-57
2023/09/23 00:42:47;;;;;;;;;1.00;0.00;;;;;19.76;100.00;100568.56;2114684;27;45552;-56
2023/09/23 00:43:48;;;;;;;;;0.00;0.00;;;;;19.78;100.00;100571.16;2114277;27;46593;-58
2023/09/23 00:44:48;;;;;;;;;0.00;0.00;;;;;19.89;100.00;100564.13;2105975;28;45511;-59
2023/09/23 00:45:51;;;;;;;;;0.00;0.00;;;;;19.82;100.00;100559.22;2105947;27;46554;-59
2023/09/23 00:46:51;;;;;;;;;0.00;0.00;;;;;19.91;100.00;100569.41;2112135;27;46772;-59
2023/09/23 00:47:53;;;;;;;;;0.00;0.00;;;;;19.89;100.00;100572.22;2121470;27;46445;-59
2023/09/23 00:48:54;;;;;;;;;0.00;0.00;;;;;19.91;100.00;100569.41;2120375;27;46793;-58
2023/09/23 00:49:54;;;;;;;;;0.00;0.00;;;;;19.83;100.00;100566.38;2114046;27;46355;-56
2023/09/23 00:50:56;;;;;;;;;0.67;0.00;;;;;19.84;100.00;100573.47;2109089;27;46547;-60
2023/09/23 00:51:57;;;;;;;;;0.50;0.50;;;;;19.83;100.00;100566.38;2112034;27;46822;-58
2023/09/23 00:52:58;;;;;;;;;0.00;0.00;;;;;19.81;100.00;100566.44;2114216;27;47189;-62
2023/09/23 00:53:59;;;;;;;;;0.00;0.00;;;;;19.78;100.00;100565.75;2111150;27;45138;-59
2023/09/23 00:54:59;;;;;;;;;1.00;0.33;;;;;19.75;100.00;100564.13;2105926;28;46650;-59
2023/09/23 00:56:02;;;;;;;;;0.00;0.00;;;;;19.82;100.00;100567.28;2111039;27;46284;-58
2023/09/23 00:57:06;;;;;;;;;0.00;0.00;;;;;19.74;100.00;100567.78;2111325;27;46679;-58
2023/09/23 00:58:07;;;;;;;;;0.25;0.00;;;;;19.77;100.00;100561.34;2105310;28;46399;-59
2023/09/23 00:59:07;;;;;;;;;0.75;0.75;;;;;19.76;100.00;100567.69;2104984;27;46981;-57
2023/09/23 01:00:11;;;;;;;;;1.00;0.00;;;;;19.75;100.00;100571.34;2114156;27;46409;-59
2023/09/23 01:01:14;;;;;;;;;0.00;0.00;;;;;19.75;100.00;100566.84;2114245;27;45236;-59
2023/09/23 01:02:14;;;;;;;;;0.00;0.00;;;;;19.75;100.00;100577.59;2113903;27;46376;-58
2023/09/23 01:03:15;;;;;;;;;0.00;0.00;;;;;19.75;100.00;100569.53;2113554;27;46612;-57
2023/09/23 01:04:16;;;;;;;;;0.00;0.00;;;;;19.81;100.00;100571.81;2113589;27;46303;-59
2023/09/23 01:05:19;;;;;;;;;0.67;0.00;;;;;19.74;100.00;100572.31;2110484;27;46519;-58
2023/09/23 01:06:21;;;;;;;;;0.00;0.00;;;;;19.72;100.00;100571.53;2106683;28;45003;-58
2023/09/23 01:07:22;;;;;;;;;1.00;1.00;;;;;19.72;100.00;100571.53;2114570;27;45852;-59
2023/09/23 01:08:29;;;;;;;;;0.00;0.00;;;;;19.71;100.00;100575.19;2114424;27;46199;-58
2023/09/23 01:09:33;;;;;;;;;0.00;0.00;;;;;19.71;100.00;100573.38;2114204;27;46900;-58
2023/09/23 01:10:33;;;;;;;;;0.00;0.00;;;;;19.69;100.00;100570.78;2106774;27;46010;-58
2023/09/23 01:11:35;;;;;;;;;0.00;0.00;;;;;19.73;100.00;100574.13;2107649;27;46251;-58
2023/09/23 01:12:35;;;;;;;;;0.50;0.00;;;;;19.74;100.00;100572.31;2113841;27;46407;-58
2023/09/23 01:13:35;;;;;;;;;0.00;0.00;;;;;19.75;100.00;100574.03;2113052;27;45925;-59
2023/09/23 01:14:36;;;;;;;;;0.67;0.00;;;;;19.75;100.00;100572.22;2106227;27;46426;-58
2023/09/23 01:15:40;;;;;;;;;0.67;0.33;;;;;19.72;100.00;100583.19;2111024;27;46314;-59
2023/09/23 01:16:41;;;;;;;;;1.00;0.25;;;;;19.71;100.00;100572.50;2113344;27;45911;-58
2023/09/23 01:17:48;;;;;;;;;0.00;0.00;;;;;19.68;100.00;100582.47;2113654;27;46907;-57
2023/09/23 01:18:49;;;;;;;;;0.00;0.00;;;;;19.66;100.00;100573.63;2113557;27;46799;-58
2023/09/23 01:19:52;;;;;;;;;0.00;0.00;;;;;19.65;100.00;100574.59;2114233;27;46387;-60
2023/09/23 01:20:56;;;;;;;;;0.00;0.00;;;;;19.66;100.00;100573.63;2114274;27;46305;-58
2023/09/23 01:21:57;;;;;;;;;0.00;0.00;;;;;19.67;100.00;100579.88;2114089;27;47023;-58
2023/09/23 01:22:58;;;;;;;;;0.00;0.00;;;;;19.67;100.00;100574.50;2113682;27;46429;-59
2023/09/23 01:23:58;;;;;;;;;0.67;0.67;;;;;19.66;100.00;100576.34;2114071;27;46687;-59
2023/09/23 01:24:58;;;;;;;;;0.00;0.00;;;;;19.68;100.00;100571.72;2113516;27;45908;-58
2023/09/23 01:25:59;;;;;;;;;0.00;0.00;;;;;19.67;100.00;100569.97;2112396;27;46591;-57
2023/09/23 01:27:00;;;;;;;;;0.00;0.00;;;;;19.71;100.00;100575.19;2113662;27;46334;-59
2023/09/23 01:28:03;;;;;;;;;0.00;0.00;;;;;19.68;100.00;100574.41;2114173;27;46400;-59
2023/09/23 01:29:04;;;;;;;;;0.75;0.00;;;;;19.68;100.00;100579.78;2110919;27;46485;-58
2023/09/23 01:30:05;;;;;;;;;0.67;0.00;;;;;19.68;100.00;100577.09;2113848;27;46503;-58
2023/09/23 01:31:07;;;;;;;;;0.00;0.00;;;;;19.67;100.00;100578.06;2113633;27;46782;-57
2023/09/23 01:32:34;;;;;;;;;0.00;0.00;;;;;19.68;100.00;100574.41;2114147;27;46357;-60
2023/09/23 01:33:35;;;;;;;;;0.67;0.00;;;;;19.68;100.00;100576.22;2111523;27;46600;-58
2023/09/23 01:34:36;;;;;;;;;0.00;0.00;;;;;19.68;100.00;100578.94;2115926;27;46454;-58
2023/09/23 01:35:36;;;;;;;;;1.00;0.33;;;;;19.68;100.00;100579.78;2113560;27;46223;-56
2023/09/23 01:36:37;;;;;;;;;0.00;0.00;;;;;19.66;100.00;100579.03;2112028;27;46472;-57
2023/09/23 01:37:37;;;;;;;;;0.33;0.33;;;;;19.66;100.00;100579.03;2096096;28;46659;-57
2023/09/23 01:38:41;;;;;;;;;1.00;0.00;;;;;19.65;100.00;100585.38;2095987;28;46554;-59
2023/09/23 01:39:41;;;;;;;;;0.75;0.75;;;;;19.64;100.00;100586.34;2113941;27;46313;-58
2023/09/23 01:40:43;;;;;;;;;0.00;0.00;;;;;19.65;100.00;100579.13;2114321;27;46492;-59
2023/09/23 01:41:44;;;;;;;;;0.00;0.00;;;;;19.64;100.00;100583.63;2105297;28;46635;-59
2023/09/23 01:42:46;;;;;;;;;0.00;0.00;;;;;19.67;100.00;100585.28;2107178;27;46234;-59
2023/09/23 01:43:46;;;;;;;;;0.00;0.00;;;;;19.69;100.00;100583.34;2110414;27;46560;-57
2023/09/23 01:44:48;;;;;;;;;0.00;0.00;;;;;19.69;100.00;100577.97;2112473;27;46572;-58
2023/09/23 01:45:49;;;;;;;;;0.00;0.00;;;;;19.68;100.00;100578.94;2114076;27;46707;-58
2023/09/23 01:46:49;;;;;;;;;0.00;0.00;;;;;19.70;100.00;100585.09;2108627;27;46241;-58
2023/09/23 01:47:49;;;;;;;;;0.00;0.00;;;;;19.75;100.00;100582.97;2115027;27;46422;-58
2023/09/23 01:48:50;;;;;;;;;0.00;0.00;;;;;19.75;100.00;100585.69;2113633;27;46736;-59
2023/09/23 01:49:50;;;;;;;;;0.00;0.00;;;;;19.80;100.00;100588.06;2114057;27;46657;-58
2023/09/23 01:50:51;;;;;;;;;0.00;0.00;;;;;19.80;100.00;100590.75;2113560;27;46333;-57
2023/09/23 01:51:52;;;;;;;;;0.00;0.00;;;;;19.78;100.00;100581.94;2109519;27;46744;-59
2023/09/23 01:52:52;;;;;;;;;0.00;0.00;;;;;19.77;100.00;100588.28;2113692;27;47069;-59
2023/09/23 01:53:53;;;;;;;;;0.33;0.33;;;;;19.76;100.00;100590.09;2111741;27;46598;-59
2023/09/23 01:54:54;;;;;;;;;0.00;0.00;;;;;19.75;100.00;100591.06;2113596;27;47008;-59
2023/09/23 01:55:54;;;;;;;;;1.33;1.00;;;;;19.78;100.00;100588.16;2102395;28;46371;-59
2023/09/23 01:56:54;;;;;;;;;1.00;1.00;;;;;19.79;100.00;100591.72;2089172;28;47157;-59
2023/09/23 01:57:55;;;;;;;;;0.00;0.00;;;;;19.78;100.00;100584.63;2103394;27;46561;-59
2023/09/23 01:58:55;;;;;;;;;3.00;2.00;;;;;19.78;100.00;100596.25;2112967;27;46642;-58
2023/09/23 01:59:56;;;;;;;;;3.33;1.67;;;;;19.79;100.00;100597.13;2114036;27;46726;-59
2023/09/23 02:00:58;;;;;;;;;2.33;1.00;;;;;19.78;100.00;100592.69;2118014;27;46155;-58
2023/09/23 02:01:59;;;;;;;;;0.50;0.00;;;;;19.78;100.00;100593.56;2112331;27;46094;-59
2023/09/23 02:02:59;;;;;;;;;0.00;0.00;;;;;19.77;100.00;100597.22;2107660;27;46823;-59
2023/09/23 02:04:00;;;;;;;;;2.33;1.67;;;;;19.76;100.00;100600.00;2111959;27;45573;-57
2023/09/23 02:05:01;;;;;;;;;3.75;1.50;;;;;19.76;100.00;100591.94;2100334;28;46703;-59
2023/09/23 02:06:02;;;;;;;;;1.33;0.33;;;;;19.75;100.00;100601.84;2105034;28;46194;-59
2023/09/23 02:07:10;;;;;;;;;0.25;0.25;;;;;19.75;100.00;100595.59;2112486;27;46570;-57
2023/09/23 02:08:10;;;;;;;;;1.50;0.00;;;;;19.74;100.00;100597.41;2113395;27;46500;-57
2023/09/23 02:09:11;;;;;;;;;0.00;0.00;;;;;19.74;100.00;100597.41;2113628;27;46713;-57
2023/09/23 02:10:11;;;;;;;;;0.00;0.00;;;;;19.75;100.00;100603.66;2113629;27;46268;-57
2023/09/23 02:11:12;;;;;;;;;0.00;0.00;;;;;19.74;100.00;100600.09;2107582;27;46347;-58
2023/09/23 02:12:14;;;;;;;;;0.00;0.00;;;;;19.73;100.00;100597.50;2113669;27;46161;-58
2023/09/23 02:13:14;;;;;;;;;0.00;0.00;;;;;19.72;100.00;100607.41;2114090;27;46016;-59
2023/09/23 02:14:15;;;;;;;;;1.00;1.00;;;;;19.71;100.00;100602.13;2113351;27;46315;-59
2023/09/23 02:15:15;;;;;;;;;0.00;0.00;;;;;19.71;100.00;100608.38;2113387;27;46469;-59
2023/09/23 02:16:18;;;;;;;;;0.00;0.00;;;;;19.71;100.00;100608.38;2113933;27;46241;-59
2023/09/23 02:17:20;;;;;;;;;0.00;0.00;;;;;19.71;100.00;100608.38;2113593;27;46716;-59
2023/09/23 02:18:22;;;;;;;;;0.00;0.00;;;;;19.69;100.00;100605.78;2111840;27;46834;-58
2023/09/23 02:19:23;;;;;;;;;1.00;0.00;;;;;19.69;100.00;100610.28;2109803;27;46354;-58
2023/09/23 02:20:24;;;;;;;;;0.00;0.00;;;;;19.69;100.00;100612.97;2113402;27;47035;-56
2023/09/23 02:21:27;;;;;;;;;0.00;0.00;;;;;19.69;100.00;100607.56;2113790;27;46939;-58
2023/09/23 02:22:27;;;;;;;;;0.25;0.00;;;;;19.68;100.00;100606.72;2113865;27;46911;-59
2023/09/23 02:23:28;;;;;;;;;0.00;0.00;;;;;19.69;100.00;100610.28;2113772;27;47178;-59
2023/09/23 02:24:28;;;;;;;;;0.00;0.00;;;;;19.67;100.00;100609.50;2113292;27;46819;-58
2023/09/23 02:25:28;;;;;;;;;0.00;0.00;;;;;19.66;100.00;100608.63;2113646;27;46225;-57
2023/09/23 02:26:29;;;;;;;;;0.00;0.00;;;;;19.67;100.00;100617.56;2113534;27;46176;-58
2023/09/23 02:27:29;;;;;;;;;0.00;0.00;;;;;19.66;100.00;100611.34;2113493;27;46487;-59
2023/09/23 02:28:30;;;;;;;;;0.00;0.00;;;;;19.65;100.00;100619.50;2113494;27;46729;-57
2023/09/23 02:29:31;;;;;;;;;0.00;0.00;;;;;19.66;100.00;100621.22;2112888;27;45805;-58
2023/09/23 02:30:32;;;;;;;;;0.00;0.00;;;;;19.60;100.00;100609.03;2113703;27;46916;-57
2023/09/23 02:31:35;;;;;;;;;0.00;0.00;;;;;19.62;100.00;100623.25;2103770;28;47091;-58
2023/09/23 02:32:38;;;;;;;;;0.00;0.00;;;;;19.63;100.00;100624.13;2104285;27;46748;-58
2023/09/23 02:33:39;;;;;;;;;0.25;0.25;;;;;19.61;100.00;100626.91;2097591;28;46558;-58
2023/09/23 02:34:39;;;;;;;;;0.00;0.00;;;;;19.60;100.00;100630.56;2101389;28;46485;-58
2023/09/23 02:35:39;;;;;;;;;0.00;0.00;;;;;19.59;100.00;100630.66;2111232;27;46407;-58
2023/09/23 02:36:41;;;;;;;;;0.33;0.33;;;;;19.59;100.00;100633.34;2115950;27;45874;-57
2023/09/23 02:37:43;;;;;;;;;0.25;0.25;;;;;19.57;100.00;100636.13;2113767;27;46147;-58
2023/09/23 02:38:43;;;;;;;;;0.00;0.00;;;;;19.53;100.00;100631.84;2105492;28;47026;-58
2023/09/23 02:39:43;;;;;;;;;0.00;0.00;;;;;19.53;100.00;100634.53;2106547;27;46495;-58
2023/09/23 02:40:44;;;;;;;;;0.00;0.00;;;;;19.44;100.00;100632.41;2108996;27;46253;-58
2023/09/23 02:41:49;;;;;;;;;0.67;0.67;;;;;19.45;100.00;100625.22;2112811;27;45101;-58
2023/09/23 02:42:53;;;;;;;;;0.00;0.00;;;;;19.49;100.00;100633.00;2113342;27;46585;-59
2023/09/23 02:43:55;;;;;;;;;0.00;0.00;;;;;19.46;100.00;100627.81;2113871;27;46507;-58
2023/09/23 02:44:56;;;;;;;;;0.00;0.00;;;;;19.46;100.00;100635.88;2112285;27;47199;-58
2023/09/23 02:45:57;;;;;;;;;0.00;0.00;;;;;19.46;100.00;100645.78;2104877;28;46395;-58
2023/09/23 02:46:58;;;;;;;;;0.00;0.00;;;;;19.46;100.00;100637.72;2111974;27;46685;-59
2023/09/23 02:47:58;;;;;;;;;1.00;0.00;;;;;19.45;100.00;100642.22;2113648;27;46613;-59
2023/09/23 02:48:59;;;;;;;;;0.00;0.00;;;;;19.45;100.00;100650.31;2113280;27;46739;-59
2023/09/23 02:50:00;;;;;;;;;1.00;1.00;;;;;19.45;100.00;100644.06;2110476;27;47162;-56
2023/09/23 02:51:04;;;;;;;;;0.25;0.25;;;;;19.43;100.00;100649.50;2100510;28;46528;-59
2023/09/23 02:52:06;;;;;;;;;0.00;0.00;;;;;19.41;100.00;100641.50;2103280;27;46589;-58
2023/09/23 02:53:07;;;;;;;;;0.00;0.00;;;;;19.43;100.00;100641.41;2108532;27;46429;-58
2023/09/23 02:54:08;;;;;;;;;1.00;0.00;;;;;19.44;100.00;100650.34;2105067;27;46343;-58
2023/09/23 02:55:19;;;;;;;;;0.00;0.00;;;;;19.40;100.00;100650.56;2110356;27;46578;-58
2023/09/23 02:56:19;;;;;;;;;0.00;0.00;;;;;19.43;100.00;100646.81;2114548;27;46463;-59
2023/09/23 02:57:20;;;;;;;;;0.00;0.00;;;;;19.43;100.00;100644.13;2107988;27;46673;-59
2023/09/23 02:58:22;;;;;;;;;0.33;0.00;;;;;19.44;100.00;100648.56;2104481;28;45046;-58
2023/09/23 02:59:26;;;;;;;;;0.00;0.00;;;;;19.42;100.00;100654.00;2112882;27;46916;-59
2023/09/23 03:00:30;;;;;;;;;0.00;0.00;;;;;19.40;100.00;100655.94;2112571;27;46476;-59
2023/09/23 03:01:30;;;;;;;;;0.25;0.00;;;;;19.40;100.00;100660.44;2112275;27;46781;-59
2023/09/23 03:02:31;;;;;;;;;0.00;0.00;;;;;19.39;100.00;100653.34;2103154;27;46481;-59
2023/09/23 03:03:37;;;;;;;;;0.00;0.00;;;;;19.39;100.00;100650.66;2105029;27;46114;-59
2023/09/23 03:04:37;;;;;;;;;0.00;0.00;;;;;19.39;100.00;100656.03;2104196;28;46352;-57
2023/09/23 03:05:41;;;;;;;;;0.00;0.00;;;;;19.39;100.00;100656.03;2104368;28;46217;-59
2023/09/23 03:06:49;;;;;;;;;0.75;0.00;;;;;19.37;100.00;100653.44;2116329;27;46849;-59
2023/09/23 03:07:50;;;;;;;;;0.00;0.00;;;;;19.36;100.00;100657.09;2112417;27;46097;-59
2023/09/23 03:08:54;;;;;;;;;0.75;0.00;;;;;19.30;100.00;100656.56;2108777;27;46932;-59
2023/09/23 03:09:55;;;;;;;;;0.25;0.25;;;;;19.34;100.00;100655.44;2109230;27;46864;-58
2023/09/23 03:11:02;;;;;;;;;1.00;0.00;;;;;19.36;100.00;100661.59;2109617;27;46992;-59
2023/09/23 03:12:03;;;;;;;;;0.75;0.75;;;;;19.34;100.00;100661.69;2113488;27;46594;-58
2023/09/23 03:13:07;;;;;;;;;0.00;0.00;;;;;19.34;100.00;100669.78;2103868;27;46518;-58
2023/09/23 03:14:12;;;;;;;;;0.00;0.00;;;;;19.33;100.00;100661.78;2105008;27;46181;-59
2023/09/23 03:15:15;;;;;;;;;0.00;0.00;;;;;19.32;100.00;100666.31;2107222;27;46810;-58
2023/09/23 03:16:28;;;;;;;;;0.00;0.00;;;;;19.31;100.00;100664.56;2112281;27;46285;-59
2023/09/23 03:17:28;;;;;;;;;0.00;0.00;;;;;19.30;100.00;100668.19;2112387;27;46567;-59
2023/09/23 03:18:33;;;;;;;;;0.00;0.00;;;;;19.31;100.00;100666.38;2113682;27;46312;-58
2023/09/23 03:19:34;;;;;;;;;0.00;0.00;;;;;19.30;100.00;100670.00;2112948;27;45785;-58
2023/09/23 03:20:36;;;;;;;;;0.00;0.00;;;;;19.29;100.00;100673.66;2112680;27;46915;-57
2023/09/23 03:21:41;;;;;;;;;0.00;0.00;;;;;19.29;100.00;100671.84;2113390;27;46705;-59
2023/09/23 03:22:41;;;;;;;;;0.00;0.00;;;;;19.28;100.00;100671.94;2112508;27;46526;-58
2023/09/23 03:23:41;;;;;;;;;0.00;0.00;;;;;19.27;100.00;100679.13;2113432;27;46586;-59
2023/09/23 03:24:42;;;;;;;;;0.00;0.00;;;;;19.24;100.00;100682.00;2112746;27;46881;-58
2023/09/23 03:25:47;;;;;;;;;0.00;0.00;;;;;19.24;100.00;100689.22;2111554;27;46110;-59
2023/09/23 03:26:51;;;;;;;;;1.25;0.25;;;;;19.25;100.00;100688.25;2109467;27;46072;-58
2023/09/23 03:27:52;;;;;;;;;0.00;0.00;;;;;19.23;100.00;100696.44;2112241;27;47019;-59
2023/09/23 03:28:53;;;;;;;;;0.50;0.00;;;;;19.23;100.00;100691.03;2113128;27;46788;-59
2023/09/23 03:29:54;;;;;;;;;1.00;0.00;;;;;19.22;100.00;100688.44;2113555;27;46636;-59
2023/09/23 03:31:01;;;;;;;;;0.00;0.00;;;;;19.22;100.00;100692.00;2113300;27;46991;-57
2023/09/23 03:32:01;;;;;;;;;1.75;0.75;;;;;19.19;100.00;100697.56;2103450;27;46538;-58
2023/09/23 03:33:02;;;;;;;;;0.00;0.00;;;;;19.19;100.00;100691.31;2103985;28;46194;-58
2023/09/23 03:34:03;;;;;;;;;0.25;0.00;;;;;19.18;100.00;100701.19;2112724;27;46795;-58
2023/09/23 03:35:07;;;;;;;;;1.00;1.00;;;;;19.11;100.00;100700.69;2113097;27;46276;-58
2023/09/23 03:36:16;;;;;;;;;0.50;0.00;;;;;19.10;100.00;100701.66;2103473;28;46854;-59
2023/09/23 03:37:17;;;;;;;;;0.00;0.00;;;;;19.14;100.00;100696.09;2105167;27;46315;-59
2023/09/23 03:38:17;;;;;;;;;0.00;0.00;;;;;19.16;100.00;100703.09;2105743;27;46165;-60
2023/09/23 03:39:18;;;;;;;;;0.00;0.00;;;;;19.09;100.00;100701.75;2111445;27;45949;-59
2023/09/23 03:40:24;;;;;;;;;1.00;0.67;;;;;19.10;100.00;100706.16;2112055;27;46260;-58
2023/09/23 03:41:25;;;;;;;;;3.00;1.00;;;;;19.08;100.00;100706.25;2112876;27;46417;-59
2023/09/23 03:42:26;;;;;;;;;0.00;0.00;;;;;19.08;100.00;100708.06;2111461;27;46451;-58
2023/09/23 03:43:26;;;;;;;;;0.00;0.00;;;;;19.05;100.00;100705.53;2108847;27;46890;-57
2023/09/23 03:44:27;;;;;;;;;0.00;0.00;;;;;19.10;100.00;100709.72;2112270;27;46285;-58
2023/09/23 03:45:32;;;;;;;;;1.33;1.33;;;;;19.14;100.00;100710.41;2113105;27;46241;-59
2023/09/23 03:46:33;;;;;;;;;0.50;0.50;;;;;19.15;100.00;100708.56;2113831;27;46320;-57
2023/09/23 03:47:34;;;;;;;;;0.25;0.00;;;;;19.13;100.00;100710.50;2112626;27;46446;-58
2023/09/23 03:48:35;;;;;;;;;0.75;0.75;;;;;19.09;100.00;100716.06;2113321;27;46528;-58
2023/09/23 03:49:35;;;;;;;;;0.00;0.00;;;;;19.09;100.00;100713.38;2120612;27;45951;-58
2023/09/23 03:50:36;;;;;;;;;1.00;0.00;;;;;19.08;100.00;100714.31;2116925;27;46477;-58
2023/09/23 03:51:37;;;;;;;;;2.00;0.33;;;;;19.03;100.00;100700.25;2112881;27;46758;-57
2023/09/23 03:52:38;;;;;;;;;1.00;1.00;;;;;19.05;100.00;100709.09;2103551;27;46220;-58
2023/09/23 03:53:38;;;;;;;;;1.67;0.67;;;;;19.04;100.00;100704.66;2103854;27;46325;-58
2023/09/23 03:54:38;;;;;;;;;1.00;1.00;;;;;19.03;100.00;100711.00;2112922;27;46418;-58
2023/09/23 03:55:39;;;;;;;;;1.00;0.00;;;;;19.03;100.00;100708.31;2112683;27;47050;-58
2023/09/23 03:56:40;;;;;;;;;1.00;0.00;;;;;19.04;100.00;100710.06;2106425;27;46334;-59
2023/09/23 03:57:42;;;;;;;;;0.00;0.00;;;;;19.06;100.00;100712.69;2105919;28;46584;-56
2023/09/23 03:58:43;;;;;;;;;0.00;0.00;;;;;19.05;100.00;100716.28;2113849;27;46589;-56
2023/09/23 03:59:43;;;;;;;;;1.00;0.00;;;;;19.04;100.00;100717.25;2110921;27;46754;-58
2023/09/23 04:00:44;;;;;;;;;0.00;0.00;;;;;19.04;100.00;100723.50;2114740;27;46327;-61
2023/09/23 04:01:45;;;;;;;;;1.67;0.00;;;;;19.06;100.00;100712.69;2104040;28;46308;-57
2023/09/23 04:02:47;;;;;;;;;2.00;1.00;;;;;19.05;100.00;100718.97;2104409;27;46495;-58
2023/09/23 04:03:47;;;;;;;;;1.00;0.25;;;;;19.03;100.00;100710.13;2114527;27;46798;-59
2023/09/23 04:04:49;;;;;;;;;2.00;0.00;;;;;19.01;100.00;100712.06;2107232;27;46558;-58
2023/09/23 04:05:57;;;;;;;;;0.00;0.00;;;;;19.03;100.00;100720.91;2106068;28;46702;-58
2023/09/23 04:06:57;;;;;;;;;0.00;0.00;;;;;19.01;100.00;100715.59;2106630;27;46881;-57
2023/09/23 04:07:58;;;;;;;;;1.33;0.00;;;;;19.02;100.00;100714.66;2114633;27;46683;-58
2023/09/23 04:08:59;;;;;;;;;0.00;0.00;;;;;19.02;100.00;100711.97;2114684;27;46566;-57
2023/09/23 04:09:59;;;;;;;;;1.33;0.00;;;;;19.02;100.00;100713.78;2114581;27;46206;-58
2023/09/23 04:11:04;;;;;;;;;1.00;0.00;;;;;18.99;100.00;100717.53;2114604;27;46358;-57
2023/09/23 04:12:06;;;;;;;;;0.00;0.00;;;;;18.99;100.00;100719.34;2113727;27;46299;-58
2023/09/23 04:13:07;;;;;;;;;0.00;0.00;;;;;18.97;100.00;100719.44;2114381;27;46615;-58
2023/09/23 04:14:07;;;;;;;;;0.00;0.00;;;;;18.95;100.00;100715.09;2116759;27;46688;-59
2023/09/23 04:15:08;;;;;;;;;0.67;0.67;;;;;18.98;100.00;100717.63;2100069;27;46633;-56
2023/09/23 04:16:09;;;;;;;;;1.00;1.00;;;;;19.00;100.00;100724.63;2105616;28;46396;-56
2023/09/23 04:17:10;;;;;;;;;1.75;1.75;;;;;19.04;100.00;100731.56;2105314;28;46458;-57
2023/09/23 04:18:11;;;;;;;;;0.00;0.00;;;;;19.04;100.00;100726.19;2105917;27;47150;-60
2023/09/23 04:19:11;;;;;;;;;2.50;1.00;;;;;19.04;100.00;100719.94;2114514;27;46544;-59
2023/09/23 04:20:14;;;;;;;;;0.00;0.00;;;;;19.04;100.00;100717.25;2113587;27;46201;-57
2023/09/23 04:21:14;;;;;;;;;0.00;0.00;;;;;19.02;100.00;100717.34;2113803;27;46968;-57
2023/09/23 04:22:15;;;;;;;;;1.00;0.00;;;;;19.01;100.00;100729.06;2114002;27;46405;-58
2023/09/23 04:23:15;;;;;;;;;1.00;0.67;;;;;19.01;100.00;100726.38;2111861;27;47238;-58
2023/09/23 04:24:15;;;;;;;;;1.67;0.33;;;;;19.00;100.00;100723.78;2114523;27;46548;-58
2023/09/23 04:25:16;;;;;;;;;0.00;0.00;;;;;19.00;100.00;100731.84;2114433;27;46504;-58
2023/09/23 04:26:20;;;;;;;;;0.00;0.00;;;;;18.99;100.00;100730.09;2103858;28;46320;-57
2023/09/23 04:27:21;;;;;;;;;1.25;0.00;;;;;18.99;100.00;100727.41;2105028;27;46429;-59
2023/09/23 04:28:25;;;;;;;;;1.00;1.00;;;;;18.96;100.00;100727.59;2114268;27;46287;-58
2023/09/23 04:29:25;;;;;;;;;2.75;1.75;;;;;18.98;100.00;100729.25;2114432;27;46938;-57
2023/09/23 04:30:26;;;;;;;;;2.67;1.00;;;;;18.99;100.00;100732.78;2112682;27;46334;-57
2023/09/23 04:31:26;;;;;;;;;1.00;1.00;;;;;18.99;100.00;100735.47;2106747;27;46429;-58
2023/09/23 04:32:27;;;;;;;;;1.00;1.00;;;;;18.99;100.00;100730.09;2106320;27;46341;-58
2023/09/23 04:33:28;;;;;;;;;1.00;1.00;;;;;18.98;100.00;100729.25;2105902;28;46734;-58
2023/09/23 04:34:29;;;;;;;;;0.00;0.00;;;;;18.97;100.00;100735.56;2110462;27;45449;-58
2023/09/23 04:35:30;;;;;;;;;0.00;0.00;;;;;18.97;100.00;100737.41;2105262;28;46738;-58
2023/09/23 04:36:30;;;;;;;;;0.33;0.00;;;;;18.96;100.00;100736.53;2105855;27;46927;-57
2023/09/23 04:37:33;;;;;;;;;2.67;0.67;;;;;18.92;100.00;100747.53;2114030;27;46618;-57
2023/09/23 04:38:34;;;;;;;;;1.00;1.00;;;;;18.94;100.00;100748.34;2113623;27;46925;-57
2023/09/23 04:39:34;;;;;;;;;2.67;1.00;;;;;18.93;100.00;100750.16;2113319;27;46523;-58
2023/09/23 04:40:35;;;;;;;;;1.67;0.33;;;;;18.92;100.00;100748.38;2114152;27;46237;-58
2023/09/23 04:41:39;;;;;;;;;0.00;0.00;;;;;18.94;100.00;100751.88;2114207;27;46279;-57
2023/09/23 04:42:42;;;;;;;;;1.00;0.00;;;;;18.95;100.00;100750.94;2110972;27;46915;-57